Latest Weather Observations for Cape Naturaliste

IDW60801

Issued at 7:03 am WST Wednesday 22 September 2021 (issued every 10 minutes, with the page automatically refreshed every 10 minutes)

About weather observations | Map of weather stations | Latest weather observations for WA | Other Formats
Station Details ID: 009519 Name: CAPE NATURALISTE Lat: -33.54 Lon: 115.02 Height: 109.0 m
Data from the previous 72 hours. | See also: Recent months at Cape Naturaliste
Date/Time
WST
Temp
°C
App
Temp
°C
Dew
Point
°C
Rel
Hum
%
Delta-T
°C
Wind Press
QNH
hPa
Press
MSL
hPa
Rain since
9am
mm
Dir  Spd
km/h
Gust
km/h
Spd
kts
Gust
kts
22/07:00am 15.2 11.5 4.6 49 4.9 SE 13 15 7 8 1024.9 1024.9 0.0
22/06:30am 13.1 9.0 4.3 55 4.0 SE 15 17 8 9 1024.7 1024.7 0.0
22/06:00am 12.7 8.1 3.6 54 4.1 ESE 17 17 9 9 1024.7 1024.7 0.0
22/05:30am 12.6 8.3 3.3 53 4.2 ESE 15 19 8 10 1024.4 1024.4 0.0
22/05:00am 12.0 8.5 7.1 72 2.4 ESE 15 17 8 9 1024.3 1024.3 0.0
22/04:30am 13.2 9.4 5.9 61 3.5 ESE 15 17 8 9 1024.3 1024.3 0.0
22/04:00am 14.3 10.3 2.9 46 5.1 E 13 19 7 10 1024.2 1024.2 0.0
22/03:30am 15.7 12.6 1.4 38 6.3 SSW 7 9 4 5 1024.2 1024.2 0.0
22/03:00am 15.3 11.9 2.1 41 5.8 SSW 9 11 5 6 1024.3 1024.3 0.0
22/02:30am 14.4 11.2 3.2 47 5.1 SE 9 11 5 6 1024.6 1024.6 0.0
22/02:00am 13.8 9.9 3.3 49 4.7 SE 13 15 7 8 1024.9 1024.9 0.0
22/01:30am 14.1 10.3 3.8 50 4.7 ESE 13 15 7 8 1025.2 1025.2 0.0
22/01:00am 14.0 10.2 3.8 50 4.6 SE 13 13 7 7 1025.4 1025.4 0.0
22/12:30am 13.5 9.4 4.1 53 4.3 ESE 15 15 8 8 1025.7 1025.7 0.0
22/12:00am 12.8 8.8 5.0 59 3.6 ESE 15 17 8 9 1025.9 1025.9 0.0
 
Date/Time
WST
Temp
°C
App
Temp
°C
Dew
Point
°C
Rel
Hum
%
Delta-T
°C
Wind Press
QNH
hPa
Press
MSL
hPa
Rain since
9am
mm
Dir  Spd
km/h
Gust
km/h
Spd
kts
Gust
kts
21/11:30pm 14.0 9.4 3.8 50 4.7 ESE 17 20 9 11 1026.1 1026.1 0.0
21/11:00pm 17.1 14.3 1.9 36 6.8 NNW 6 7 3 4 1026.4 1026.4 0.0
21/10:30pm 16.9 14.1 1.8 36 6.8 NNW 6 7 3 4 1026.7 1026.7 0.0
21/10:00pm 16.8 13.8 1.7 36 6.7 NW 7 9 4 5 1026.8 1026.8 0.0
21/09:30pm 17.7 14.9 2.1 35 7.1 N 6 7 3 4 1026.9 1026.9 0.0
21/09:00pm 17.0 14.2 2.2 37 6.7 NE 6 7 3 4 1027.0 1027.0 0.0
21/08:30pm 16.9 14.1 3.2 40 6.3 NE 7 9 4 5 1027.2 1027.2 0.0
21/08:00pm 17.5 14.2 2.3 36 6.9 N 9 9 5 5 1027.1 1027.1 0.0
21/07:30pm 17.4 14.1 2.6 37 6.8 N 9 13 5 7 1027.1 1027.1 0.0
21/07:00pm 16.7 13.5 3.1 40 6.2 N 9 13 5 7 1027.0 1027.0 0.0
21/06:30pm 16.5 13.5 4.2 44 5.8 NNE 9 17 5 9 1026.9 1026.9 0.0
21/06:00pm 16.5 13.7 5.2 47 5.4 NE 9 13 5 7 1027.0 1027.0 0.0
21/05:30pm 17.9 15.0 6.7 48 5.6 ENE 11 13 6 7 1026.9 1026.9 0.0
21/05:00pm 18.8 16.2 7.9 49 5.6 NE 11 17 6 9 1026.8 1026.8 0.0
21/04:30pm 19.3 16.6 8.9 51 5.5 NE 13 15 7 8 1026.8 1026.8 0.0
21/04:00pm 19.6 16.5 8.9 50 5.6 NE 15 17 8 9 1026.9 1026.9 0.0
21/03:30pm 19.7 16.5 10.1 54 5.2 NE 17 19 9 10 1027.1 1027.1 0.0
21/03:00pm 20.2 17.0 10.0 52 5.5 NE 17 20 9 11 1027.3 1027.3 0.0
21/02:30pm 20.5 17.4 11.7 57 4.9 NNE 19 24 10 13 1027.6 1027.6 0.0
21/02:00pm 20.4 16.7 10.2 52 5.5 NE 20 24 11 13 1027.8 1027.8 0.0
21/01:30pm 20.4 16.7 10.2 52 5.5 NE 20 24 11 13 1028.1 1028.1 0.0
21/01:00pm 20.1 16.6 10.8 55 5.1 NE 20 26 11 14 1028.6 1028.5 0.0
21/12:30pm 20.1 16.3 11.1 56 5.0 NE 22 26 12 14 1029.1 1029.0 0.0
21/12:00pm 20.0 16.2 11.0 56 4.9 NE 22 26 12 14 1029.6 1029.5 0.0
21/11:30am 20.0 15.8 11.0 56 4.9 NE 24 28 13 15 1029.9 1029.8 0.0
21/11:00am 19.5 15.0 10.2 55 5.0 NE 24 30 13 16 1030.2 1030.2 0.0
21/10:30am 19.1 15.1 10.6 58 4.6 NE 22 28 12 15 1030.5 1030.5 0.0
21/10:00am 18.5 13.9 9.8 57 4.6 NE 24 28 13 15 1030.7 1030.7 0.0
21/09:30am 18.1 13.5 9.7 58 4.5 NE 24 30 13 16 1030.8 1030.8 0.0
21/09:00am 16.8 12.5 10.6 67 3.3 ENE 24 30 13 16 1030.8 1030.8 0.0
21/08:30am 15.3 10.4 9.9 70 2.8 ENE 26 30 14 16 1030.6 1030.6 0.0
21/08:00am 14.4 9.7 9.4 72 2.6 E 24 30 13 16 1030.5 1030.5 0.0
21/07:30am 12.9 7.6 8.4 74 2.2 E 26 30 14 16 1030.4 1030.4 0.0
21/07:00am 11.3 5.9 7.8 79 1.7 E 26 32 14 17 1030.2 1030.2 0.0
21/06:30am 9.8 4.1 6.9 82 1.4 E 26 30 14 16 1030.1 1030.0 0.0
21/06:00am 9.5 3.4 6.6 82 1.3 E 28 32 15 17 1029.9 1029.8 0.0
21/05:30am 9.5 3.4 6.4 81 1.4 E 28 32 15 17 1029.8 1029.7 0.0
21/05:00am 9.8 3.7 6.5 80 1.5 E 28 33 15 18 1029.7 1029.6 0.0
21/04:30am 10.0 3.9 6.5 79 1.6 E 28 35 15 19 1029.7 1029.6 0.0
21/04:00am 10.1 3.6 6.6 79 1.6 ESE 30 33 16 18 1029.6 1029.5 0.0
21/03:30am 9.8 3.7 6.5 80 1.5 E 28 32 15 17 1029.8 1029.7 0.0
21/03:00am 10.2 4.2 6.9 80 1.6 E 28 32 15 17 1029.9 1029.8 0.0
21/02:30am 11.6 5.7 7.7 77 1.9 E 28 33 15 18 1030.1 1030.0 0.0
21/02:00am 12.3 6.6 8.4 77 1.9 E 28 33 15 18 1030.4 1030.4 0.0
21/01:30am 12.2 6.9 8.5 78 1.8 E 26 33 14 18 1030.6 1030.6 0.0
21/01:00am 11.8 6.0 7.9 77 1.9 E 28 32 15 17 1030.8 1030.8 0.0
21/12:30am 11.9 6.2 8.2 78 1.8 E 28 32 15 17 1030.8 1030.8 0.0
21/12:00am 12.0 6.6 7.9 76 2.0 E 26 30 14 16 1031.0 1031.0 0.0
 
Date/Time
WST
Temp
°C
App
Temp
°C
Dew
Point
°C
Rel
Hum
%
Delta-T
°C
Wind Press
QNH
hPa
Press
MSL
hPa
Rain since
9am
mm
Dir  Spd
km/h
Gust
km/h
Spd
kts
Gust
kts
20/11:30pm 12.2 7.1 7.5 73 2.3 E 24 30 13 16 1031.3 1031.3 0.0
20/11:00pm 12.3 7.0 7.0 70 2.5 E 24 28 13 15 1031.6 1031.6 0.0
20/10:30pm 12.5 7.3 7.2 70 2.6 E 24 28 13 15 1031.9 1031.9 0.0
20/10:00pm 13.1 7.9 7.3 68 2.8 E 24 30 13 16 1032.0 1032.0 0.0
20/09:30pm 13.4 8.3 7.8 69 2.8 E 24 30 13 16 1032.0 1032.0 0.0
20/09:00pm 13.4 8.3 7.6 68 2.8 E 24 30 13 16 1032.1 1032.1 0.0
20/08:30pm 13.1 8.3 7.5 69 2.8 ESE 22 26 12 14 1032.2 1032.2 0.0
20/08:00pm 13.2 9.0 8.1 71 2.5 ESE 20 24 11 13 1032.0 1032.0 0.0
20/07:30pm 13.8 9.9 8.8 72 2.5 E 19 24 10 13 1031.8 1031.8 0.0
20/07:00pm 13.4 9.8 8.5 72 2.4 ESE 17 20 9 11 1031.7 1031.7 0.0
20/06:30pm 12.8 10.3 6.6 66 3.0 SE 9 11 5 6 1031.8 1031.8 0.0
20/06:00pm 14.3 12.3 6.9 61 3.6 SE 7 9 4 5 1031.7 1031.7 0.0
20/05:30pm 15.8 13.1 7.3 57 4.2 ESE 11 15 6 8 1031.6 1031.6 0.0
20/05:00pm 16.6 13.1 7.3 54 4.6 ESE 15 19 8 10 1031.7 1031.7 0.0
20/04:30pm 17.2 13.8 7.8 54 4.8 E 15 19 8 10 1031.7 1031.7 0.0
20/04:00pm 17.5 14.1 7.8 53 4.9 E 15 20 8 11 1031.9 1031.9 0.0
20/03:30pm 17.4 14.1 8.0 54 4.8 E 15 19 8 10 1032.0 1032.0 0.0
20/03:00pm 17.5 13.9 8.4 55 4.7 E 17 20 9 11 1032.1 1032.1 0.0
20/02:30pm 17.3 13.5 7.4 52 5.0 E 17 22 9 12 1032.3 1032.3 0.0
20/02:00pm 17.2 13.0 7.5 53 4.9 E 19 26 10 14 1032.5 1032.5 0.0
20/01:30pm 17.0 12.6 7.6 54 4.8 E 20 28 11 15 1032.9 1032.9 0.0
20/01:00pm 17.0 12.3 7.9 55 4.6 E 22 30 12 16 1033.3 1033.3 0.0
20/12:30pm 16.3 11.4 6.7 53 4.7 E 22 32 12 17 1033.7 1033.7 0.0
20/12:00pm 15.9 10.6 6.6 54 4.5 E 24 35 13 19 1034.1 1034.1 0.0
20/11:30am 15.2 9.5 6.7 57 4.2 E 26 35 14 19 1034.4 1034.4 0.0
20/11:00am 14.5 8.7 6.3 58 3.9 E 26 35 14 19 1034.7 1034.7 0.0
20/10:30am 14.1 8.0 6.7 61 3.6 E 28 39 15 21 1034.8 1034.8 0.0
20/10:00am 13.6 7.5 6.7 63 3.3 E 28 39 15 21 1035.1 1035.1 0.0
20/09:30am 12.8 5.8 5.9 63 3.3 E 32 43 17 23 1035.2 1035.2 0.0
20/09:00am 12.7 5.7 6.1 64 3.1 ENE 32 41 17 22 1035.1 1035.1 0.0
20/08:30am 12.1 4.9 5.9 66 2.9 ENE 33 46 18 25 1034.9 1034.9 0.0
20/08:00am 11.5 4.3 5.8 68 2.6 ENE 33 43 18 23 1034.9 1034.9 0.0
20/07:30am 9.7 4.6 5.9 77 1.8 E 22 32 12 17 1034.9 1034.9 0.0
20/07:00am 7.9 3.5 4.7 80 1.4 ESE 17 22 9 12 1035.0 1035.0 0.0
20/06:30am 6.9 2.0 4.0 82 1.3 ESE 19 24 10 13 1034.5 1034.5 0.0
20/06:00am 6.6 1.6 3.6 81 1.3 ESE 19 22 10 12 1033.9 1033.9 0.0
20/05:30am 6.7 1.7 3.5 80 1.4 ESE 19 20 10 11 1033.7 1033.7 0.0
20/05:00am 6.8 1.6 3.4 79 1.4 ESE 20 24 11 13 1033.6 1033.6 0.0
20/04:30am 7.2 2.0 3.6 78 1.5 ESE 20 26 11 14 1033.5 1033.5 0.0
20/04:00am 7.6 2.0 3.6 76 1.7 ESE 22 28 12 15 1033.3 1033.3 0.0
20/03:30am 8.1 1.8 3.9 75 1.8 ESE 26 33 14 18 1033.1 1033.1 0.0
20/03:00am 8.2 2.4 4.2 76 1.7 ESE 24 32 13 17 1033.0 1033.0 0.0
20/02:30am 8.3 2.5 4.3 76 1.8 ESE 24 32 13 17 1032.8 1032.8 0.0
20/02:00am 8.5 2.3 4.5 76 1.8 ESE 26 32 14 17 1033.0 1033.0 0.0
20/01:30am 8.7 2.6 4.9 77 1.7 ESE 26 32 14 17 1033.1 1033.1 0.0
20/01:00am 9.0 2.6 5.0 76 1.8 ESE 28 35 15 19 1033.1 1033.1 0.0
20/12:30am 8.9 2.5 5.1 77 1.7 ESE 28 39 15 21 1033.0 1033.0 0.0
20/12:00am 9.2 2.8 5.4 77 1.7 ESE 28 35 15 19 1032.7 1032.7 0.0
 
Date/Time
WST
Temp
°C
App
Temp
°C
Dew
Point
°C
Rel
Hum
%
Delta-T
°C
Wind Press
QNH
hPa
Press
MSL
hPa
Rain since
9am
mm
Dir  Spd
km/h
Gust
km/h
Spd
kts
Gust
kts
19/11:30pm 9.3 2.9 5.3 76 1.8 ESE 28 35 15 19 1032.7 1032.7 0.0
19/11:00pm 9.6 2.9 5.4 75 1.9 ESE 30 39 16 21 1032.3 1032.3 0.0
19/10:30pm 9.9 2.8 5.5 74 2.0 ESE 32 46 17 25 1032.2 1032.2 0.0
19/10:00pm 10.2 2.9 5.6 73 2.1 SE 33 46 18 25 1031.8 1031.8 0.0
19/09:30pm 10.6 3.0 5.8 72 2.2 SE 35 46 19 25 1031.4 1031.4 0.0
19/09:03pm 10.6 3.5 5.6 71 2.3 SE 32 50 17 27 1030.9 1030.9 0.0
19/09:00pm 10.7 3.5 5.7 71 2.3 SE 33 50 18 27 1030.8 1030.8 0.0
19/08:30pm 11.0 3.8 5.7 70 2.5 SE 33 43 18 23 1030.5 1030.5 0.0
19/08:00pm 11.2 4.2 6.1 71 2.4 SE 32 43 17 23 1030.1 1030.0 0.0
19/07:30pm 11.4 5.3 6.5 72 2.3 SSE 28 39 15 21 1029.8 1029.7 0.0
19/07:00pm 11.7 7.1 6.6 71 2.4 S 20 28 11 15 1029.4 1029.3 0.0
19/06:30pm 12.2 7.2 6.3 67 2.8 S 22 32 12 17 1029.0 1028.9 0.0
19/06:00pm 13.2 8.6 6.5 64 3.2 S 20 26 11 14 1028.7 1028.6 0.0
19/05:30pm 14.8 10.4 7.4 61 3.7 SSE 20 28 11 15 1028.3 1028.3 0.0
19/05:00pm 16.2 12.8 7.7 57 4.3 SSE 15 24 8 13 1027.9 1027.9 0.0
19/04:30pm 16.7 12.7 6.8 52 4.9 SE 17 24 9 13 1027.8 1027.8 0.0
19/04:00pm 17.4 13.6 7.7 53 4.9 SSE 17 22 9 12 1027.5 1027.5 0.0
19/03:30pm 17.0 13.1 8.7 58 4.3 SE 19 26 10 14 1027.4 1027.4 0.0
19/03:00pm 18.1 15.4 10.2 60 4.2 SSE 15 26 8 14 1027.3 1027.3 0.0
19/02:30pm 16.1 12.0 8.6 61 3.8 SE 20 28 11 15 1027.2 1027.2 0.0
19/02:00pm 16.5 12.5 9.0 61 3.9 SE 20 30 11 16 1027.3 1027.3 0.0
19/01:30pm 17.1 13.3 9.8 62 3.9 SE 20 28 11 15 1027.4 1027.4 0.0
19/01:00pm 16.6 12.9 10.0 65 3.5 SE 20 30 11 16 1027.4 1027.4 0.0
19/12:30pm 17.0 12.1 9.9 63 3.8 SE 26 37 14 20 1027.5 1027.5 0.0
19/12:00pm 15.8 11.7 10.1 69 3.0 SSE 22 33 12 18 1027.6 1027.6 0.0
19/11:30am 17.3 13.0 10.7 65 3.6 SE 24 32 13 17 1027.5 1027.5 0.0
19/11:00am 15.8 11.4 11.6 76 2.3 SSE 26 35 14 19 1027.4 1027.4 0.0
19/10:30am 17.0 12.7 12.1 73 2.7 SE 26 37 14 20 1027.0 1027.0 0.0
19/10:00am 15.6 11.8 11.2 75 2.4 SE 22 33 12 18 1027.0 1027.0 0.0
19/09:30am 14.8 11.0 11.2 79 1.9 SSE 22 32 12 17 1027.0 1027.0 0.0
19/09:00am 14.8 10.7 11.6 81 1.7 SE 24 32 13 17 1026.5 1026.5 1.4
19/08:30am 14.5 11.4 11.5 82 1.6 SSE 19 26 10 14 1026.2 1026.2 1.4
19/08:00am 14.4 11.7 11.7 84 1.4 S 17 22 9 12 1025.7 1025.7 1.4
19/07:30am 13.2 10.8 11.3 88 1.0 SSE 15 17 8 9 1025.2 1025.2 1.4

Other formats

Comma delimited format used in spreadsheet applications
http://www.bom.gov.au/fwo/IDW60801/IDW60801.94600.axf

JavaScript Object Notation format (JSON) in row-major order
http://www.bom.gov.au/fwo/IDW60801/IDW60801.94600.json

Data quality

Most of these data are generated automatically and are frequently updated. Quality checks on data are not normally performed. It is possible for incorrect values to appear. Refer to information at About Latest Weather Observations and please check the disclaimer before using these data.